Pagrindinis puslapis
METAR-TAF:

METAR-TAF

Oro uostai :

Kuskas, Peru

platuma: 13-33S, ilguma: 071-59W, Aukštis: 3248 m

Dabartinis oras

Ataskaita buvo paskelbta 3 valandos ir 19 minutes, ne 00:00 UTC
Vėjas 4 kt iš Rytų
Temperatūra 12°C
Drėgmė 71%
Slėgis 1028 hPa
Matomumas 10 km arba daugiau
Mažai debesys ne aukštis 4600 ft
Su prošvaistėmis ne aukštis 8000 ft

METAR: SPZO 220000Z 09004KT 9999 FEW046 BKN080 12/07 Q1028 NOSIG RMK BIRD HAZARD RWY 28 PP000

Laikas: 22:19 (03:19 UTC)

Prognozė

Ataskaita buvo paskelbta 10 valandos ir 14 minutes, ne 17:05 UTC
Prognozė galioja nuo 21 metu 18 UTC su 22 metu 18 UTC
Vėjas 5 kt iš Rytų/Pietryčių
Matomumas 10 km arba daugiau
Išsisklaidę debesys ne aukštis 3600 ft
Su prošvaistėmis ne aukštis 8000 ft
Laikinai
nuo 21 metu 18 UTC su 21 metu 21 UTC
Mažai debesys ne aukštis 2000 ft
Išsisklaidę debesys ne aukštis 3000 ft
Su prošvaistėmis ne aukštis 7000 ft

TAF: SPZO 211705Z 2118/2218 11005KT 9999 SCT036 BKN080 TX17/2119Z TN08/2211Z TEMPO 2118/2121 FEW020 SCT030 BKN070

Orai ataskaitas ir orų prognozės (METAR, TAF).

turimą stotys yra geltonos ir raudonos taškus žemėlapyje.

Perkelti pele per norėdami pamatyti stoties vardą.

Tada spustelėkite, norėdami matyti oro stebėjimo ir prognozės.

Norėdami pakeisti žemėlapį: spustelėkite ant žalios mygtukų su juodo kryžiaus žemyn,; žalią mygtuką su brūkšneliu, jei norite nutolinti; arba žalių rodyklių gretimoms žemėlapius.


METAR-TAF: